Time;durP1;ratioP1;P1;durP2;ratioP2;P2;SDS_P1;SDS_P2;PMS_P1;PMS_P2;Temp;Humidity;BMP_temperature;BMP_pressure;BME280_temperature;BME280_humidity;BME280_pressure;Samples;Min_cycle;Max_cycle;Signal;HPM_P1;HPM_P2
2023/01/04 00:01:10;;;;;;;5.20;1.15;;;7.70;99.90;;;;;;5042551;28;20110;-64
2023/01/04 00:03:35;;;;;;;2.85;1.25;;;7.70;99.90;;;;;;5043772;28;20040;-77
2023/01/04 00:06:04;;;;;;;2.80;1.02;;;7.70;99.90;;;;;;5044827;28;20395;-64
2023/01/04 00:08:30;;;;;;;3.53;1.17;;;7.70;99.90;;;;;;5011646;28;20052;-74
2023/01/04 00:11:04;;;;;;;2.70;1.50;;;7.80;99.90;;;;;;5013314;28;20128;-64
2023/01/04 00:13:31;;;;;;;5.00;1.70;;;7.80;99.90;;;;;;5046100;28;20079;-64
2023/01/04 00:15:57;;;;;;;2.67;1.10;;;7.80;99.90;;;;;;5045666;28;20068;-64
2023/01/04 00:18:23;;;;;;;9.55;1.88;;;7.80;99.90;;;;;;5025576;28;20057;-64
2023/01/04 00:20:52;;;;;;;1.98;0.95;;;7.80;99.90;;;;;;5028594;28;20040;-64
2023/01/04 00:23:17;;;;;;;9.43;2.13;;;7.80;99.90;;;;;;5028058;28;20064;-64
2023/01/04 00:25:44;;;;;;;8.02;1.80;;;7.80;99.90;;;;;;5044284;28;20041;-64
2023/01/04 00:28:09;;;;;;;1.10;1.00;;;7.80;99.90;;;;;;5044451;28;20045;-64
2023/01/04 00:30:35;;;;;;;11.95;1.35;;;7.80;99.90;;;;;;5045838;28;20033;-64
2023/01/04 00:33:01;;;;;;;2.38;0.88;;;7.80;99.90;;;;;;5043178;28;20203;-64
2023/01/04 00:35:26;;;;;;;4.22;1.35;;;7.80;99.90;;;;;;5044447;28;20045;-78
2023/01/04 00:37:52;;;;;;;1.50;0.75;;;7.80;99.90;;;;;;5028180;28;20128;-65
2023/01/04 00:40:18;;;;;;;1.40;0.82;;;7.90;99.90;;;;;;5046397;28;20195;-64
2023/01/04 00:42:44;;;;;;;5.40;1.73;;;7.90;99.90;;;;;;5045578;28;20747;-64
2023/01/04 00:45:09;;;;;;;7.05;1.83;;;7.90;99.90;;;;;;5043527;28;20053;-64
2023/01/04 00:47:35;;;;;;;10.55;1.85;;;7.90;99.90;;;;;;5045961;28;20069;-64
2023/01/04 00:50:02;;;;;;;5.32;1.42;;;7.90;99.90;;;;;;5044603;28;20032;-64
2023/01/04 00:52:28;;;;;;;6.45;2.05;;;7.90;99.90;;;;;;5045309;28;20110;-78
2023/01/04 00:54:54;;;;;;;6.07;1.45;;;7.90;99.90;;;;;;5027116;28;20037;-72
2023/01/04 00:57:19;;;;;;;7.78;1.88;;;7.90;99.90;;;;;;5043978;28;20041;-64
2023/01/04 00:59:45;;;;;;;13.55;2.63;;;7.90;99.90;;;;;;5045774;28;20055;-64
2023/01/04 01:02:11;;;;;;;6.70;2.17;;;7.90;99.90;;;;;;5034767;28;20678;-65
2023/01/04 01:04:37;;;;;;;3.40;0.80;;;7.90;99.90;;;;;;5027342;28;20053;-64
2023/01/04 01:07:02;;;;;;;3.72;1.48;;;7.90;99.90;;;;;;5014498;28;20048;-65
2023/01/04 01:09:28;;;;;;;5.00;1.00;;;7.90;99.90;;;;;;5045628;28;20119;-69
2023/01/04 01:11:54;;;;;;;1.30;1.17;;;7.90;99.90;;;;;;5027348;28;20052;-64
2023/01/04 01:14:23;;;;;;;6.32;1.00;;;7.90;99.90;;;;;;5045334;28;20045;-76
2023/01/04 01:16:49;;;;;;;2.13;1.17;;;7.80;99.90;;;;;;5040003;28;20439;-64
2023/01/04 01:19:15;;;;;;;9.75;2.25;;;7.80;99.90;;;;;;5037902;28;20048;-64
2023/01/04 01:21:41;;;;;;;5.30;1.75;;;7.80;99.90;;;;;;5045849;28;20076;-64
2023/01/04 01:24:14;;;;;;;7.75;1.83;;;7.80;99.90;;;;;;5044365;28;20055;-64
2023/01/04 01:26:40;;;;;;;3.58;1.58;;;7.80;99.90;;;;;;5045092;28;20086;-64
2023/01/04 01:29:06;;;;;;;5.80;1.70;;;7.80;99.90;;;;;;5035108;28;20049;-64
2023/01/04 01:31:31;;;;;;;9.50;1.65;;;7.80;99.90;;;;;;5045008;28;20055;-64
2023/01/04 01:33:58;;;;;;;5.22;1.52;;;7.80;99.90;;;;;;5044965;28;20044;-64
2023/01/04 01:36:25;;;;;;;4.63;0.98;;;7.80;99.90;;;;;;5044900;28;20081;-67
2023/01/04 01:38:51;;;;;;;3.42;1.65;;;7.80;99.90;;;;;;5036573;28;20037;-64
2023/01/04 01:41:20;;;;;;;5.90;1.45;;;7.80;99.90;;;;;;5048144;28;20415;-64
2023/01/04 01:43:58;;;;;;;3.25;1.23;;;7.80;99.90;;;;;;5049598;28;20419;-63
2023/01/04 01:46:26;;;;;;;6.80;1.45;;;7.80;99.90;;;;;;5048143;28;20059;-64
2023/01/04 01:48:57;;;;;;;7.05;0.80;;;7.80;99.90;;;;;;5047645;28;20044;-64
2023/01/04 01:51:23;;;;;;;0.70;0.70;;;7.80;99.90;;;;;;5049036;28;20044;-85
2023/01/04 01:53:57;;;;;;;4.63;1.85;;;7.80;99.90;;;;;;5048593;28;20495;-64
2023/01/04 01:56:26;;;;;;;8.18;1.52;;;7.80;99.90;;;;;;5023812;28;20034;-64
2023/01/04 01:58:54;;;;;;;5.80;1.20;;;7.80;99.90;;;;;;5045059;28;20037;-64
2023/01/04 02:01:21;;;;;;;13.27;1.50;;;7.80;99.90;;;;;;5026644;28;20534;-64
2023/01/04 02:03:47;;;;;;;8.52;1.90;;;7.80;99.90;;;;;;5043884;28;20863;-64
2023/01/04 02:06:19;;;;;;;6.55;2.28;;;7.80;99.90;;;;;;5028611;28;20088;-64
2023/01/04 02:08:47;;;;;;;2.83;1.30;;;7.80;99.90;;;;;;5025279;28;20052;-64
2023/01/04 02:11:13;;;;;;;3.55;1.33;;;7.80;99.90;;;;;;5048024;28;20430;-65
2023/01/04 02:16:36;;;;;;;2.30;0.77;;;7.80;99.90;;;;;;5047500;28;20049;-64
2023/01/04 02:19:35;;;;;;;1.35;0.90;;;7.80;99.90;;;;;;5042778;28;20044;-64
2023/01/04 02:22:18;;;;;;;1.35;0.95;;;7.80;99.90;;;;;;5020767;28;20084;-88
2023/01/04 02:24:56;;;;;;;2.15;0.95;;;7.80;99.90;;;;;;5046911;28;20099;-64
2023/01/04 02:27:40;;;;;;;0.70;0.50;;;7.70;99.90;;;;;;5046906;28;20053;-64
2023/01/04 02:30:38;;;;;;;4.25;1.70;;;7.80;99.90;;;;;;5035414;28;20083;-64
2023/01/04 02:33:42;;;;;;;4.43;1.48;;;7.80;99.90;;;;;;5046960;28;20491;-64
2023/01/04 02:36:42;;;;;;;1.15;0.68;;;7.80;99.90;;;;;;5048145;28;20511;-64
2023/01/04 02:39:40;;;;;;;7.18;1.20;;;7.80;99.90;;;;;;5047588;28;20049;-64
2023/01/04 02:42:15;;;;;;;6.13;1.08;;;7.80;99.90;;;;;;5031342;28;20041;-64
2023/01/04 02:44:52;;;;;;;0.60;0.60;;;7.80;99.90;;;;;;5050148;28;20445;-64
2023/01/04 02:50:29;;;;;;;0.88;0.38;;;7.80;99.90;;;;;;5028243;28;20886;-64
2023/01/04 02:53:01;;;;;;;5.35;1.17;;;7.80;99.90;;;;;;5048144;28;20132;-64
2023/01/04 02:55:39;;;;;;;2.00;0.73;;;7.80;99.90;;;;;;5047105;28;20057;-72
2023/01/04 02:58:38;;;;;;;0.40;0.40;;;7.90;99.90;;;;;;5046155;28;20499;-66
2023/01/04 03:07:08;;;;;;;0.75;0.55;;;8.00;99.90;;;;;;5047606;28;20487;-65
2023/01/04 03:09:34;;;;;;;;;;;8.00;99.90;;;;;;5038172;28;20041;-64
2023/01/04 03:15:11;;;;;;;1.10;0.40;;;8.00;99.90;;;;;;5047984;28;20060;-64
2023/01/04 03:17:44;;;;;;;2.17;1.75;;;8.00;99.90;;;;;;5045924;28;20045;-63
2023/01/04 03:20:14;;;;;;;0.30;0.28;;;8.00;99.90;;;;;;5029432;28;20493;-87
2023/01/04 03:37:07;;;;;;;0.80;0.65;;;8.20;99.90;;;;;;5034036;28;20041;-67
2023/01/04 03:48:30;;;;;;;0.57;0.50;;;8.30;99.90;;;;;;5046385;28;20049;-72
2023/01/04 03:51:31;;;;;;;4.53;0.63;;;8.30;99.90;;;;;;5042432;28;20045;-64
2023/01/04 03:54:10;;;;;;;1.35;0.50;;;8.40;99.90;;;;;;4982123;28;20156;-64
2023/01/04 03:56:40;;;;;;;0.33;0.33;;;8.40;99.90;;;;;;5045529;28;20427;-64
2023/01/04 03:59:07;;;;;;;0.50;0.38;;;8.40;99.90;;;;;;5046520;28;20051;-63
2023/01/04 04:01:33;;;;;;;1.50;0.35;;;8.40;99.90;;;;;;5046179;28;20052;-64
2023/01/04 04:09:28;;;;;;;1.02;0.30;;;8.50;99.90;;;;;;5045279;28;20045;-64
2023/01/04 04:11:54;;;;;;;2.55;0.30;;;8.60;99.90;;;;;;5046555;28;20392;-65
2023/01/04 04:14:19;;;;;;;0.45;0.20;;;8.70;99.90;;;;;;5046320;28;20509;-80
2023/01/04 04:16:45;;;;;;;0.10;0.10;;;8.70;99.90;;;;;;5044364;28;20375;-64
2023/01/04 04:19:11;;;;;;;2.90;0.28;;;8.80;99.90;;;;;;5046284;28;20037;-64
2023/01/04 04:21:37;;;;;;;2.58;0.22;;;8.90;99.90;;;;;;5045152;28;20076;-64
2023/01/04 04:24:03;;;;;;;1.45;0.40;;;8.90;99.90;;;;;;5046296;28;20613;-76
2023/01/04 04:26:30;;;;;;;0.90;0.47;;;8.90;99.90;;;;;;5024336;28;20120;-64
2023/01/04 04:28:56;;;;;;;0.25;0.25;;;9.00;99.90;;;;;;5028089;28;20492;-64
2023/01/04 04:31:21;;;;;;;0.40;0.40;;;9.00;99.90;;;;;;5007244;28;20049;-64
2023/01/04 04:33:47;;;;;;;1.23;0.20;;;9.00;99.90;;;;;;5045757;28;20049;-77
2023/01/04 04:36:13;;;;;;;1.45;0.45;;;9.10;99.90;;;;;;5038448;28;20042;-64
2023/01/04 04:38:39;;;;;;;0.85;0.20;;;9.10;99.90;;;;;;5044719;28;20127;-64
2023/01/04 04:43:54;;;;;;;0.17;0.10;;;9.20;99.90;;;;;;5045372;28;20048;-64
2023/01/04 04:46:21;;;;;;;0.75;0.40;;;9.30;99.90;;;;;;5046177;28;20124;-64
2023/01/04 04:48:46;;;;;;;0.40;0.40;;;9.30;99.90;;;;;;5043731;28;20091;-64
2023/01/04 04:51:12;;;;;;;0.55;0.30;;;9.30;99.90;;;;;;5045959;28;20044;-78
2023/01/04 04:53:38;;;;;;;0.30;0.30;;;9.40;99.90;;;;;;5046006;28;20037;-83
2023/01/04 04:56:04;;;;;;;0.38;0.38;;;9.40;99.90;;;;;;5045098;28;20087;-64
2023/01/04 04:58:29;;;;;;;0.65;0.30;;;9.50;99.90;;;;;;5046011;28;20085;-64
2023/01/04 05:00:55;;;;;;;0.55;0.45;;;9.50;99.90;;;;;;5043558;28;20037;-64
2023/01/04 05:03:21;;;;;;;0.20;0.20;;;9.50;99.90;;;;;;5045887;28;20055;-64
2023/01/04 05:05:47;;;;;;;0.05;0.05;;;9.60;99.90;;;;;;5044780;28;20483;-64
2023/01/04 05:08:12;;;;;;;0.32;0.32;;;9.60;99.90;;;;;;5027901;28;20116;-65
2023/01/04 05:10:38;;;;;;;0.30;0.30;;;9.60;99.90;;;;;;5045279;28;20828;-64
2023/01/04 05:13:07;;;;;;;0.20;0.20;;;9.70;99.90;;;;;;5044579;28;20044;-64
2023/01/04 05:15:39;;;;;;;0.52;0.38;;;9.70;99.90;;;;;;5042046;28;20056;-81
2023/01/04 05:18:07;;;;;;;0.30;0.30;;;9.70;99.90;;;;;;5035007;28;20084;-64
2023/01/04 05:20:33;;;;;;;0.20;0.20;;;9.80;99.90;;;;;;5049640;28;20068;-64
2023/01/04 05:22:59;;;;;;;0.43;0.40;;;9.80;99.90;;;;;;5049187;28;20090;-64
2023/01/04 05:25:26;;;;;;;2.75;0.40;;;9.80;99.90;;;;;;5046556;28;20084;-64
2023/01/04 05:27:52;;;;;;;0.10;0.10;;;9.90;99.90;;;;;;5045967;28;20528;-73
2023/01/04 05:33:04;;;;;;;0.60;0.50;;;10.00;99.90;;;;;;5049292;28;20407;-64
2023/01/04 05:35:30;;;;;;;0.40;0.30;;;10.00;99.90;;;;;;5048476;28;20126;-65
2023/01/04 05:37:56;;;;;;;0.15;0.15;;;10.00;99.90;;;;;;5048609;28;20047;-64
2023/01/04 05:40:23;;;;;;;0.30;0.20;;;10.10;99.90;;;;;;5048946;28;20438;-77
2023/01/04 05:42:49;;;;;;;4.80;0.40;;;10.10;99.90;;;;;;5049221;28;20049;-64
2023/01/04 05:45:16;;;;;;;0.80;0.40;;;10.20;99.90;;;;;;5048775;28;20060;-64
2023/01/04 05:47:42;;;;;;;0.30;0.30;;;10.20;99.90;;;;;;5048935;28;20076;-87
2023/01/04 05:50:09;;;;;;;0.50;0.50;;;10.20;99.90;;;;;;5048741;28;20033;-64
2023/01/04 05:52:35;;;;;;;0.30;0.30;;;10.30;99.90;;;;;;5038657;28;20444;-64
2023/01/04 05:55:02;;;;;;;0.30;0.20;;;10.40;99.90;;;;;;5049098;28;20051;-88
2023/01/04 05:57:28;;;;;;;0.82;0.60;;;10.40;99.90;;;;;;5048742;28;20076;-63
2023/01/04 05:59:54;;;;;;;2.83;0.70;;;10.40;99.90;;;;;;5048533;28;20582;-64
2023/01/04 06:02:22;;;;;;;0.60;0.60;;;10.40;99.90;;;;;;5048340;28;20056;-79
2023/01/04 06:04:48;;;;;;;0.82;0.82;;;10.50;99.90;;;;;;5043587;28;20560;-64
2023/01/04 06:07:15;;;;;;;0.40;0.40;;;10.50;99.90;;;;;;5049208;28;20049;-63
2023/01/04 06:09:41;;;;;;;0.25;0.25;;;10.50;99.90;;;;;;5048228;28;20487;-64
2023/01/04 06:12:07;;;;;;;1.23;0.35;;;10.50;99.90;;;;;;5049294;28;20041;-64
2023/01/04 06:14:34;;;;;;;0.68;0.30;;;10.50;99.90;;;;;;5048323;28;20081;-64
2023/01/04 06:17:00;;;;;;;0.50;0.50;;;10.50;99.90;;;;;;5046869;28;20908;-63
2023/01/04 06:19:26;;;;;;;1.95;0.60;;;10.50;99.90;;;;;;5047818;28;20048;-90
2023/01/04 06:21:52;;;;;;;4.68;1.00;;;10.50;99.90;;;;;;5048005;28;20561;-64
2023/01/04 06:24:18;;;;;;;3.67;0.70;;;10.60;99.90;;;;;;5048635;28;20033;-63
2023/01/04 06:26:45;;;;;;;2.10;0.63;;;10.50;99.90;;;;;;5045996;28;20402;-63
2023/01/04 06:29:10;;;;;;;0.73;0.57;;;10.60;99.90;;;;;;5049256;28;20449;-81
2023/01/04 06:31:36;;;;;;;0.75;0.43;;;10.60;99.90;;;;;;5045461;28;20041;-64
2023/01/04 06:34:02;;;;;;;0.57;0.57;;;10.60;99.90;;;;;;5030687;28;20249;-64
2023/01/04 06:36:28;;;;;;;1.65;0.40;;;10.60;99.90;;;;;;5043198;28;20038;-64
2023/01/04 06:38:56;;;;;;;0.75;0.20;;;10.60;99.90;;;;;;5040575;28;20053;-64
2023/01/04 06:41:22;;;;;;;1.75;0.35;;;10.60;99.90;;;;;;5042316;28;20052;-64
2023/01/04 06:43:48;;;;;;;2.88;0.50;;;10.60;99.90;;;;;;5043870;28;20040;-64
2023/01/04 06:46:13;;;;;;;0.50;0.50;;;10.60;99.90;;;;;;5029813;28;20460;-64
2023/01/04 06:48:39;;;;;;;1.25;0.55;;;10.60;99.90;;;;;;5029276;28;20055;-64
2023/01/04 06:51:05;;;;;;;0.93;0.40;;;10.60;99.90;;;;;;5038068;28;20057;-64
2023/01/04 06:53:31;;;;;;;0.98;0.55;;;10.60;99.90;;;;;;5045216;28;20084;-64
2023/01/04 06:55:57;;;;;;;0.30;0.30;;;10.60;99.90;;;;;;5047619;28;20142;-84
2023/01/04 06:58:23;;;;;;;0.75;0.50;;;10.60;99.90;;;;;;5047311;28;20190;-65
2023/01/04 07:00:50;;;;;;;4.43;0.55;;;10.60;99.90;;;;;;5043495;28;20542;-64
2023/01/04 07:03:17;;;;;;;0.93;0.55;;;10.60;99.90;;;;;;5030400;28;20124;-64
2023/01/04 07:05:43;;;;;;;5.80;0.50;;;10.60;99.90;;;;;;5046369;28;20048;-79
2023/01/04 07:08:09;;;;;;;9.70;0.68;;;10.60;99.90;;;;;;5047351;28;20063;-77
2023/01/04 07:10:35;;;;;;;2.58;0.40;;;10.60;99.90;;;;;;5032016;28;20083;-85
2023/01/04 07:13:01;;;;;;;0.38;0.25;;;10.60;99.90;;;;;;5029041;28;20120;-64
2023/01/04 07:15:27;;;;;;;0.57;0.40;;;10.60;99.90;;;;;;5046695;28;20558;-64
2023/01/04 07:17:53;;;;;;;0.90;0.40;;;10.60;99.90;;;;;;5044925;28;20037;-84
2023/01/04 07:20:19;;;;;;;1.08;0.45;;;10.70;99.90;;;;;;5038776;28;20068;-64
2023/01/04 07:22:46;;;;;;;0.30;0.30;;;10.70;99.90;;;;;;5043656;28;20041;-64
2023/01/04 07:25:13;;;;;;;0.70;0.38;;;10.70;99.90;;;;;;5047474;28;20048;-65
2023/01/04 07:27:38;;;;;;;1.92;0.40;;;10.70;99.90;;;;;;5046713;28;20072;-65
2023/01/04 07:30:05;;;;;;;0.55;0.30;;;10.70;99.90;;;;;;5036327;28;20484;-64
2023/01/04 07:32:31;;;;;;;0.98;0.52;;;10.80;99.90;;;;;;5046323;28;20041;-64
2023/01/04 07:34:57;;;;;;;0.95;0.40;;;10.70;99.90;;;;;;5046503;28;20068;-64
2023/01/04 07:37:23;;;;;;;0.10;0.10;;;10.70;99.90;;;;;;5030583;28;20049;-64
2023/01/04 07:39:49;;;;;;;0.43;0.30;;;10.70;99.90;;;;;;5046233;28;20176;-78
2023/01/04 07:42:14;;;;;;;0.20;0.20;;;10.80;99.90;;;;;;5048344;28;20436;-64
2023/01/04 07:44:40;;;;;;;0.20;0.20;;;10.80;99.90;;;;;;5042136;28;20056;-64
2023/01/04 07:47:06;;;;;;;0.25;0.25;;;10.80;99.90;;;;;;5048190;28;20151;-64
2023/01/04 07:49:32;;;;;;;0.13;0.13;;;10.80;99.90;;;;;;5046347;28;20088;-64
2023/01/04 07:51:58;;;;;;;0.30;0.30;;;10.80;99.90;;;;;;5034108;28;20041;-65
2023/01/04 07:54:23;;;;;;;0.88;0.38;;;10.80;99.90;;;;;;5045831;28;20040;-64
2023/01/04 07:56:51;;;;;;;0.30;0.30;;;10.80;99.90;;;;;;5045926;28;20037;-64
2023/01/04 07:59:19;;;;;;;0.43;0.30;;;10.80;99.90;;;;;;5044946;28;20056;-65
2023/01/04 08:01:45;;;;;;;1.17;0.30;;;10.80;99.90;;;;;;5037349;28;20030;-68
2023/01/04 08:04:12;;;;;;;0.77;0.50;;;10.80;99.90;;;;;;5011581;28;20038;-64
2023/01/04 08:06:39;;;;;;;2.10;0.38;;;10.80;99.90;;;;;;5026875;28;20115;-64
2023/01/04 08:09:06;;;;;;;0.77;0.52;;;10.80;99.90;;;;;;5043409;28;20090;-64
2023/01/04 08:11:33;;;;;;;4.40;0.85;;;10.90;99.90;;;;;;5040414;28;20040;-77
2023/01/04 08:13:59;;;;;;;0.55;0.38;;;10.80;99.90;;;;;;5045713;28;20040;-64
2023/01/04 08:16:27;;;;;;;0.80;0.40;;;10.90;99.90;;;;;;5045317;28;20033;-68
2023/01/04 08:18:54;;;;;;;0.90;0.28;;;10.90;99.90;;;;;;5045894;28;20055;-65
2023/01/04 08:21:21;;;;;;;0.95;0.35;;;10.90;99.90;;;;;;5044839;28;20049;-64
2023/01/04 08:23:46;;;;;;;1.30;0.32;;;10.90;99.90;;;;;;5045248;28;20102;-64
2023/01/04 08:26:14;;;;;;;0.30;0.30;;;10.90;99.90;;;;;;5044557;28;20048;-64
2023/01/04 08:28:40;;;;;;;0.40;0.28;;;10.90;99.90;;;;;;5008747;28;20506;-64
2023/01/04 08:31:12;;;;;;;5.60;0.43;;;10.90;99.90;;;;;;5043717;28;20080;-66
2023/01/04 08:33:39;;;;;;;1.45;0.30;;;11.00;99.90;;;;;;5044765;28;20041;-64
2023/01/04 08:36:21;;;;;;;3.75;0.50;;;11.00;99.90;;;;;;5043940;28;20441;-64
2023/01/04 08:38:48;;;;;;;0.10;0.10;;;10.90;99.90;;;;;;5045224;28;20560;-85
2023/01/04 08:41:14;;;;;;;0.73;0.20;;;11.00;99.90;;;;;;5026021;28;20107;-86
2023/01/04 08:43:40;;;;;;;0.30;0.20;;;10.90;99.90;;;;;;5046218;28;20057;-64
2023/01/04 08:46:06;;;;;;;0.63;0.28;;;10.90;99.90;;;;;;5024598;28;20052;-64
2023/01/04 08:48:33;;;;;;;2.17;0.50;;;10.90;99.90;;;;;;5045325;28;20041;-64
2023/01/04 08:51:04;;;;;;;0.73;0.30;;;11.00;99.90;;;;;;5044956;28;20079;-64
2023/01/04 08:53:31;;;;;;;0.10;0.10;;;11.00;99.90;;;;;;5044496;28;20392;-86
2023/01/04 08:55:58;;;;;;;0.75;0.32;;;11.00;99.90;;;;;;5027842;28;20049;-65
2023/01/04 08:58:24;;;;;;;0.20;0.20;;;11.00;99.90;;;;;;5044753;28;20111;-83
2023/01/04 09:00:50;;;;;;;0.10;0.10;;;11.00;99.90;;;;;;5046421;28;20144;-65
2023/01/04 09:03:16;;;;;;;0.25;0.25;;;11.00;99.90;;;;;;5031130;28;20121;-65
2023/01/04 09:05:43;;;;;;;0.30;0.30;;;11.10;99.90;;;;;;5045891;28;20124;-65
2023/01/04 09:08:09;;;;;;;0.30;0.30;;;11.00;99.90;;;;;;5044603;28;20059;-65
2023/01/04 09:10:37;;;;;;;0.52;0.20;;;11.10;99.90;;;;;;5045679;28;20037;-65
2023/01/04 09:13:03;;;;;;;0.80;0.38;;;11.10;99.90;;;;;;5045461;28;20040;-65
2023/01/04 09:15:30;;;;;;;0.20;0.15;;;11.10;99.90;;;;;;5045097;28;20037;-69
2023/01/04 09:17:55;;;;;;;0.50;0.50;;;11.10;99.90;;;;;;5045871;28;20076;-65
2023/01/04 09:20:21;;;;;;;1.00;0.55;;;11.10;99.90;;;;;;5044124;28;20087;-65
2023/01/04 09:22:47;;;;;;;0.40;0.40;;;11.10;99.90;;;;;;5045904;28;20049;-65
2023/01/04 09:25:13;;;;;;;0.40;0.22;;;11.10;99.90;;;;;;5034249;28;20052;-76
2023/01/04 09:27:38;;;;;;;0.30;0.30;;;11.20;99.90;;;;;;5027633;28;20127;-65
2023/01/04 09:30:05;;;;;;;0.20;0.10;;;11.20;99.90;;;;;;5045236;28;20041;-65
2023/01/04 09:32:31;;;;;;;0.17;0.17;;;11.20;99.90;;;;;;5044380;28;20045;-65
2023/01/04 09:34:56;;;;;;;0.65;0.20;;;11.20;99.90;;;;;;5017200;28;20045;-65
2023/01/04 09:37:23;;;;;;;0.17;0.17;;;11.20;99.90;;;;;;5040350;28;20072;-65
2023/01/04 09:39:49;;;;;;;0.90;0.25;;;11.20;99.90;;;;;;5050925;28;20056;-65
2023/01/04 09:42:21;;;;;;;0.40;0.40;;;11.30;99.90;;;;;;5044159;28;20079;-76
2023/01/04 09:44:55;;;;;;;0.10;0.10;;;11.20;99.90;;;;;;5038207;28;20042;-65
2023/01/04 09:47:32;;;;;;;0.13;0.10;;;11.20;99.90;;;;;;5043796;28;20947;-78
2023/01/04 09:50:12;;;;;;;0.20;0.20;;;11.30;99.90;;;;;;5026392;28;20052;-65
2023/01/04 09:52:55;;;;;;;1.10;0.10;;;11.30;99.90;;;;;;5045107;28;20190;-70
2023/01/04 09:55:30;;;;;;;0.50;0.20;;;11.30;99.90;;;;;;5042055;28;20037;-78
2023/01/04 09:58:01;;;;;;;1.08;0.30;;;11.30;99.90;;;;;;5044302;28;20049;-65
2023/01/04 10:00:50;;;;;;;0.70;0.17;;;11.30;99.90;;;;;;5044879;28;20106;-65
2023/01/04 10:03:31;;;;;;;1.70;0.45;;;11.30;99.90;;;;;;5047751;28;20044;-65
2023/01/04 10:05:59;;;;;;;3.10;0.90;;;11.30;99.90;;;;;;5047378;28;20075;-65
2023/01/04 10:08:25;;;;;;;1.95;0.45;;;11.30;99.90;;;;;;5045320;28;20048;-65
2023/01/04 10:11:00;;;;;;;3.70;0.80;;;11.30;99.90;;;;;;5048331;28;20049;-65
2023/01/04 10:13:45;;;;;;;0.20;0.20;;;11.40;99.90;;;;;;5047725;28;20519;-65
2023/01/04 10:16:19;;;;;;;0.95;0.28;;;11.30;99.90;;;;;;5046108;28;20075;-82
2023/01/04 10:19:29;;;;;;;2.70;0.70;;;11.40;99.90;;;;;;5048660;28;20049;-65
2023/01/04 10:22:30;;;;;;;4.93;0.75;;;11.30;99.90;;;;;;4963660;28;20518;-69
2023/01/04 10:25:14;;;;;;;3.97;0.70;;;11.40;99.90;;;;;;5040469;28;20407;-68
2023/01/04 10:27:52;;;;;;;11.02;1.20;;;11.40;99.90;;;;;;5035309;28;20041;-65
2023/01/04 10:30:49;;;;;;;1.17;0.60;;;11.50;99.90;;;;;;5036060;28;20063;-65
2023/01/04 10:33:25;;;;;;;2.83;0.60;;;11.50;99.90;;;;;;5033432;28;20092;-65
2023/01/04 10:35:52;;;;;;;7.03;1.73;;;11.50;99.90;;;;;;5041123;28;20048;-83
2023/01/04 10:38:27;;;;;;;9.13;1.88;;;11.50;99.90;;;;;;5046554;28;20069;-66
2023/01/04 10:40:54;;;;;;;7.72;1.30;;;11.60;99.90;;;;;;5048378;28;20072;-65
2023/01/04 10:43:41;;;;;;;8.05;1.33;;;11.60;99.90;;;;;;5046912;28;20415;-70
2023/01/04 10:46:11;;;;;;;7.50;1.23;;;11.60;99.90;;;;;;5029515;28;20084;-80
2023/01/04 10:48:45;;;;;;;7.60;1.38;;;11.60;99.90;;;;;;5027880;28;20076;-65
2023/01/04 10:51:13;;;;;;;10.40;1.95;;;11.70;99.90;;;;;;5029049;28;20036;-82
2023/01/04 10:54:02;;;;;;;11.57;2.38;;;11.70;99.90;;;;;;5047601;28;20098;-65
2023/01/04 10:56:30;;;;;;;9.80;1.60;;;11.70;99.90;;;;;;5047021;28;20057;-77
2023/01/04 10:59:19;;;;;;;6.18;1.40;;;11.80;99.90;;;;;;5045895;28;20045;-66
2023/01/04 11:01:50;;;;;;;8.57;1.45;;;11.90;99.90;;;;;;5029197;28;20140;-66
2023/01/04 11:04:27;;;;;;;12.45;2.10;;;11.90;99.90;;;;;;5046665;28;20091;-66
2023/01/04 11:07:20;;;;;;;12.40;1.52;;;11.90;99.90;;;;;;5016127;28;20045;-65
2023/01/04 11:10:00;;;;;;;12.98;2.97;;;11.90;99.90;;;;;;5041972;28;20036;-74
2023/01/04 11:12:25;;;;;;;16.00;3.10;;;11.90;99.90;;;;;;5027512;28;20103;-66
2023/01/04 11:14:52;;;;;;;13.95;2.78;;;12.00;99.90;;;;;;5047686;28;20032;-67
2023/01/04 11:17:20;;;;;;;17.58;2.65;;;12.00;99.90;;;;;;5034736;28;20043;-65
2023/01/04 11:19:46;;;;;;;14.50;2.58;;;12.00;99.90;;;;;;5045440;28;20060;-76
2023/01/04 11:22:42;;;;;;;25.38;2.80;;;12.00;99.90;;;;;;5046455;28;20049;-65
2023/01/04 11:25:14;;;;;;;15.32;2.55;;;12.00;99.90;;;;;;5040479;28;20044;-65
2023/01/04 11:28:50;;;;;;;16.33;2.75;;;12.10;99.90;;;;;;5045915;28;20052;-65
2023/01/04 11:31:33;;;;;;;23.40;2.90;;;12.10;99.90;;;;;;4963842;28;20591;-66
2023/01/04 11:34:03;;;;;;;26.23;3.67;;;12.10;99.90;;;;;;4963203;28;20039;-66
2023/01/04 11:36:32;;;;;;;21.40;3.05;;;12.10;99.90;;;;;;5003718;28;20471;-65
2023/01/04 11:38:58;;;;;;;8.02;1.40;;;12.20;99.90;;;;;;5027953;28;20056;-66
2023/01/04 11:41:24;;;;;;;20.85;2.92;;;12.20;99.90;;;;;;5046316;28;20332;-65
2023/01/04 11:43:58;;;;;;;11.27;1.45;;;12.20;99.90;;;;;;5007050;28;20040;-65
2023/01/04 11:46:25;;;;;;;14.18;2.88;;;12.20;99.90;;;;;;5027568;28;20128;-65
2023/01/04 11:48:52;;;;;;;21.67;3.75;;;12.20;99.90;;;;;;5009794;28;20459;-91
2023/01/04 11:51:30;;;;;;;19.45;3.20;;;12.30;99.90;;;;;;5024184;28;20045;-65
2023/01/04 11:54:19;;;;;;;12.48;1.67;;;12.30;99.90;;;;;;5043766;28;20055;-66
2023/01/04 11:57:00;;;;;;;8.55;1.58;;;12.30;99.90;;;;;;5032550;28;20053;-65
2023/01/04 11:59:26;;;;;;;15.98;2.70;;;12.20;99.90;;;;;;5043912;28;20107;-77
2023/01/04 12:02:23;;;;;;;14.60;1.65;;;12.20;99.90;;;;;;5040040;28;20048;-65
2023/01/04 12:04:52;;;;;;;13.98;2.55;;;12.30;99.90;;;;;;5020272;28;20061;-65
2023/01/04 12:07:28;;;;;;;2.88;1.00;;;12.30;99.90;;;;;;5046369;28;20036;-65
2023/01/04 12:09:54;;;;;;;4.65;1.20;;;12.30;99.90;;;;;;5027685;28;20487;-65
2023/01/04 12:12:21;;;;;;;7.80;1.27;;;12.30;99.90;;;;;;5044097;28;20041;-73
2023/01/04 12:14:49;;;;;;;2.10;1.00;;;12.30;99.90;;;;;;5027387;28;20051;-66
2023/01/04 12:17:28;;;;;;;11.13;2.60;;;12.30;99.90;;;;;;5045684;28;20098;-66
2023/01/04 12:19:55;;;;;;;8.77;2.15;;;12.30;99.90;;;;;;5015568;28;20051;-65
2023/01/04 12:22:37;;;;;;;9.93;1.92;;;12.30;99.90;;;;;;5044170;28;20076;-83
2023/01/04 12:25:21;;;;;;;11.55;2.33;;;12.30;99.90;;;;;;5033877;28;20047;-65
2023/01/04 12:27:49;;;;;;;19.40;2.95;;;12.30;99.90;;;;;;5041314;28;20521;-65
2023/01/04 12:30:44;;;;;;;20.00;3.38;;;12.30;99.90;;;;;;5025750;28;20044;-65
2023/01/04 12:33:29;;;;;;;7.18;1.85;;;12.30;99.90;;;;;;5025527;28;20090;-66
2023/01/04 12:35:59;;;;;;;6.57;1.40;;;12.30;99.90;;;;;;5047335;28;20094;-68
2023/01/04 12:39:04;;;;;;;18.65;2.47;;;12.40;99.90;;;;;;5050229;28;20045;-65
2023/01/04 12:41:38;;;;;;;17.77;3.08;;;12.40;99.90;;;;;;5048078;28;20048;-65
2023/01/04 12:44:35;;;;;;;17.98;2.67;;;12.40;99.90;;;;;;5039089;28;20083;-72
2023/01/04 12:50:19;;;;;;;7.70;1.73;;;12.40;99.90;;;;;;5042386;28;20514;-65
2023/01/04 12:52:52;;;;;;;13.95;1.70;;;12.50;99.90;;;;;;5022199;28;20061;-65
2023/01/04 12:55:29;;;;;;;3.95;0.70;;;12.50;99.90;;;;;;5036850;28;20102;-73
2023/01/04 12:57:57;;;;;;;5.85;1.80;;;12.40;99.90;;;;;;5042617;28;20206;-66
2023/01/04 13:00:42;;;;;;;10.65;2.13;;;12.40;99.90;;;;;;5043601;28;20041;-65
2023/01/04 13:03:17;;;;;;;10.02;2.03;;;12.40;99.90;;;;;;5031605;28;20060;-77
2023/01/04 13:06:04;;;;;;;12.13;1.75;;;12.50;99.90;;;;;;5036201;28;20124;-65
2023/01/04 13:08:38;;;;;;;17.17;3.65;;;12.40;99.90;;;;;;5026933;28;20457;-65
2023/01/04 13:11:06;;;;;;;10.15;0.93;;;12.40;99.90;;;;;;5042777;28;20048;-65
2023/01/04 13:13:52;;;;;;;7.10;1.98;;;12.40;99.90;;;;;;5041809;28;20933;-66
2023/01/04 13:16:42;;;;;;;3.45;0.93;;;12.40;99.90;;;;;;5042447;28;20039;-65
2023/01/04 13:19:22;;;;;;;1.02;0.63;;;12.40;99.90;;;;;;5025780;28;20073;-66
2023/01/04 13:21:50;;;;;;;;;;;12.50;99.90;;;;;;5042193;28;20045;-65
2023/01/04 13:24:30;;;;;;;12.10;2.67;;;12.40;99.90;;;;;;5044503;28;20029;-65
2023/01/04 13:27:06;;;;;;;3.10;0.90;;;12.40;99.90;;;;;;5022588;28;20041;-64
2023/01/04 13:29:33;;;;;;;1.27;0.52;;;12.40;99.90;;;;;;5043337;28;20037;-64
2023/01/04 13:32:12;;;;;;;4.60;1.40;;;12.40;99.90;;;;;;5018567;28;20045;-64
2023/01/04 13:35:01;;;;;;;3.28;0.80;;;12.40;99.90;;;;;;5041044;28;20060;-63
2023/01/04 13:37:39;;;;;;;10.65;1.98;;;12.40;99.90;;;;;;5022150;28;20045;-64
2023/01/04 13:40:27;;;;;;;5.90;1.15;;;12.40;99.90;;;;;;5013024;28;20045;-63
2023/01/04 13:43:14;;;;;;;5.70;1.02;;;12.30;99.90;;;;;;5041195;28;20462;-64
2023/01/04 13:46:06;;;;;;;2.88;0.90;;;12.30;99.90;;;;;;5045681;28;20049;-91
2023/01/04 13:48:48;;;;;;;4.72;0.82;;;12.30;99.90;;;;;;5023903;28;20052;-64
2023/01/04 13:51:16;;;;;;;6.47;1.70;;;12.30;99.90;;;;;;5040032;28;20537;-65
2023/01/04 13:53:54;;;;;;;5.88;1.15;;;12.30;99.90;;;;;;5045721;28;20064;-64
2023/01/04 13:56:25;;;;;;;6.65;1.20;;;12.30;99.90;;;;;;5044377;28;20052;-71
2023/01/04 13:58:58;;;;;;;4.50;0.80;;;12.20;99.90;;;;;;5047998;28;20141;-64
2023/01/04 14:01:35;;;;;;;7.53;0.75;;;12.20;99.90;;;;;;5026249;28;20049;-64
2023/01/04 14:04:12;;;;;;;4.05;0.93;;;12.20;99.90;;;;;;5039720;28;20049;-64